Time;durP1;ratioP1;P1;durP2;ratioP2;P2;SDS_P1;SDS_P2;PMS_P1;PMS_P2;Temp;Humidity;BMP_temperature;BMP_pressure;BME280_temperature;BME280_humidity;BME280_pressure;Samples;Min_cycle;Max_cycle;Signal;HPM_P1;HPM_P2
2023/08/14 00:01:22;;;;;;;0.20;0.20;;;14.60;99.90;;;;;;5102048;27;20382;-68
2023/08/14 00:03:50;;;;;;;0.45;0.20;;;14.60;99.90;;;;;;5118503;28;20052;-67
2023/08/14 00:06:15;;;;;;;0.10;0.10;;;14.60;99.90;;;;;;5103181;28;20043;-68
2023/08/14 00:08:41;;;;;;;0.00;0.00;;;14.60;99.90;;;;;;5133417;27;20042;-68
2023/08/14 00:11:07;;;;;;;0.10;0.10;;;14.60;99.90;;;;;;5105728;27;20042;-68
2023/08/14 00:13:55;;;;;;;0.10;0.10;;;14.60;99.90;;;;;;5100573;27;20039;-68
2023/08/14 00:16:21;;;;;;;0.00;0.00;;;14.60;99.90;;;;;;5101778;27;20216;-68
2023/08/14 00:18:47;;;;;;;0.05;0.05;;;14.60;99.90;;;;;;5102902;27;20119;-67
2023/08/14 00:21:13;;;;;;;0.10;0.10;;;14.60;99.90;;;;;;5102287;27;20536;-68
2023/08/14 00:23:39;;;;;;;0.05;0.05;;;14.50;99.90;;;;;;5114052;27;20062;-68
2023/08/14 00:26:05;;;;;;;0.00;0.00;;;14.50;99.90;;;;;;5129435;27;20596;-68
2023/08/14 00:28:31;;;;;;;0.10;0.10;;;14.50;99.90;;;;;;5097697;28;20031;-68
2023/08/14 00:30:57;;;;;;;0.10;0.10;;;14.50;99.90;;;;;;5105600;27;20409;-67
2023/08/14 00:33:23;;;;;;;0.00;0.00;;;14.50;99.90;;;;;;5105632;27;20095;-68
2023/08/14 00:35:48;;;;;;;0.00;0.00;;;14.50;99.90;;;;;;5136924;27;20052;-68
2023/08/14 00:38:14;;;;;;;0.00;0.00;;;14.50;99.90;;;;;;5103434;27;20035;-68
2023/08/14 00:40:39;;;;;;;0.00;0.00;;;14.40;99.90;;;;;;5133514;27;20134;-68
2023/08/14 00:43:05;;;;;;;0.08;0.08;;;14.40;99.90;;;;;;5104755;27;20506;-68
2023/08/14 00:45:31;;;;;;;0.85;0.30;;;14.40;99.90;;;;;;5102129;27;20035;-68
2023/08/14 00:47:57;;;;;;;0.10;0.10;;;14.30;99.90;;;;;;5103807;27;20122;-68
2023/08/14 00:50:23;;;;;;;0.00;0.00;;;14.20;99.90;;;;;;5106195;27;20039;-68
2023/08/14 00:52:52;;;;;;;0.10;0.10;;;14.10;99.90;;;;;;5102069;27;20048;-68
2023/08/14 00:55:21;;;;;;;0.10;0.10;;;14.10;99.90;;;;;;5126780;27;20123;-68
2023/08/14 00:57:47;;;;;;;0.10;0.10;;;14.10;99.90;;;;;;5102715;27;20028;-68
2023/08/14 01:00:13;;;;;;;0.00;0.00;;;14.10;99.90;;;;;;5132820;27;20036;-68
2023/08/14 01:02:41;;;;;;;0.00;0.00;;;14.10;99.90;;;;;;5103374;27;20521;-68
2023/08/14 01:05:07;;;;;;;0.00;0.00;;;14.20;99.90;;;;;;5121876;27;20050;-68
2023/08/14 01:07:33;;;;;;;0.00;0.00;;;14.20;99.90;;;;;;5132319;27;20481;-68
2023/08/14 01:10:02;;;;;;;0.10;0.10;;;14.20;99.90;;;;;;5102831;27;20043;-69
2023/08/14 01:13:01;;;;;;;0.03;0.03;;;14.20;99.90;;;;;;5100496;27;20047;-69
2023/08/14 01:15:32;;;;;;;0.00;0.00;;;14.10;99.90;;;;;;5099455;27;20055;-69
2023/08/14 01:18:00;;;;;;;0.10;0.10;;;14.10;99.90;;;;;;5133943;27;20122;-69
2023/08/14 01:20:29;;;;;;;0.00;0.00;;;14.10;99.90;;;;;;5101213;27;20122;-69
2023/08/14 01:23:15;;;;;;;0.00;0.00;;;14.10;99.90;;;;;;5096476;27;20046;-69
2023/08/14 01:25:41;;;;;;;0.00;0.00;;;14.10;99.90;;;;;;5099880;27;20047;-69
2023/08/14 01:28:08;;;;;;;0.00;0.00;;;14.10;99.90;;;;;;5100875;27;20042;-69
2023/08/14 01:30:34;;;;;;;0.22;0.10;;;14.10;99.90;;;;;;5100162;27;20398;-69
2023/08/14 01:33:00;;;;;;;0.10;0.10;;;14.10;99.90;;;;;;5133289;27;20039;-69
2023/08/14 01:35:29;;;;;;;0.10;0.08;;;14.10;99.90;;;;;;5103726;27;20043;-69
2023/08/14 01:38:01;;;;;;;0.75;0.10;;;14.10;99.90;;;;;;5123242;27;20085;-69
2023/08/14 01:40:58;;;;;;;0.20;0.20;;;14.00;99.90;;;;;;5106688;27;20039;-69
2023/08/14 01:43:30;;;;;;;0.10;0.10;;;14.00;99.90;;;;;;5108082;27;20051;-70
2023/08/14 01:45:57;;;;;;;0.10;0.10;;;13.90;99.90;;;;;;5101015;27;20043;-70
2023/08/14 01:48:24;;;;;;;0.10;0.10;;;13.80;99.90;;;;;;5104559;27;20054;-70
2023/08/14 01:50:52;;;;;;;0.10;0.10;;;13.80;99.90;;;;;;5135260;27;20525;-70
2023/08/14 01:53:18;;;;;;;0.10;0.10;;;13.70;99.90;;;;;;5116807;27;20524;-70
2023/08/14 01:55:44;;;;;;;0.10;0.10;;;13.70;99.90;;;;;;5094132;27;20071;-70
2023/08/14 01:58:10;;;;;;;0.13;0.13;;;13.70;99.90;;;;;;5125806;27;20358;-70
2023/08/14 02:00:36;;;;;;;0.10;0.10;;;13.60;99.90;;;;;;5102639;27;20035;-70
2023/08/14 02:03:02;;;;;;;0.17;0.17;;;13.40;99.90;;;;;;5100985;27;20398;-70
2023/08/14 02:05:28;;;;;;;0.10;0.10;;;13.30;99.90;;;;;;5123964;27;20035;-71
2023/08/14 02:07:54;;;;;;;0.10;0.10;;;13.20;99.90;;;;;;5099807;27;20058;-70
2023/08/14 02:10:19;;;;;;;0.00;0.00;;;13.20;99.90;;;;;;5100527;27;20446;-70
2023/08/14 02:12:45;;;;;;;0.03;0.03;;;13.20;99.90;;;;;;5103198;27;20138;-70
2023/08/14 02:15:11;;;;;;;0.00;0.00;;;13.10;99.90;;;;;;5106615;27;20111;-70
2023/08/14 02:17:37;;;;;;;0.50;0.03;;;13.20;99.90;;;;;;5101545;27;20027;-70
2023/08/14 02:20:02;;;;;;;0.20;0.20;;;13.20;99.90;;;;;;5101570;27;20481;-70
2023/08/14 02:22:28;;;;;;;0.00;0.00;;;13.30;99.90;;;;;;5100968;27;20039;-71
2023/08/14 02:24:54;;;;;;;0.10;0.10;;;13.20;99.90;;;;;;5097111;27;20035;-71
2023/08/14 02:27:20;;;;;;;0.00;0.00;;;13.30;99.90;;;;;;5126428;27;20431;-71
2023/08/14 02:29:45;;;;;;;0.03;0.03;;;13.30;99.90;;;;;;5093798;28;20047;-71
2023/08/14 02:32:11;;;;;;;0.05;0.05;;;13.30;99.90;;;;;;5099254;27;20132;-71
2023/08/14 02:34:55;;;;;;;0.10;0.10;;;13.30;99.90;;;;;;5102334;27;20433;-71
2023/08/14 02:37:21;;;;;;;0.03;0.03;;;13.30;99.90;;;;;;5102006;27;20039;-71
2023/08/14 02:39:47;;;;;;;0.05;0.05;;;13.30;99.90;;;;;;5084137;27;20114;-71
2023/08/14 02:42:16;;;;;;;0.00;0.00;;;13.30;99.90;;;;;;5111854;27;20046;-71
2023/08/14 02:44:41;;;;;;;0.20;0.20;;;13.30;99.90;;;;;;5104441;27;20051;-71
2023/08/14 02:47:07;;;;;;;0.00;0.00;;;13.30;99.90;;;;;;5101085;27;20092;-71
2023/08/14 02:49:32;;;;;;;0.00;0.00;;;13.30;99.90;;;;;;5101215;27;20035;-71
2023/08/14 02:51:59;;;;;;;0.00;0.00;;;13.30;99.90;;;;;;5102730;27;20031;-72
2023/08/14 02:54:24;;;;;;;0.10;0.10;;;13.40;99.90;;;;;;5102833;27;20110;-71
2023/08/14 02:56:50;;;;;;;0.17;0.10;;;13.30;99.90;;;;;;5097923;28;20558;-71
2023/08/14 02:59:15;;;;;;;0.20;0.20;;;13.30;99.90;;;;;;5120746;27;20517;-71
2023/08/14 03:01:41;;;;;;;0.10;0.10;;;13.30;99.90;;;;;;5104908;28;20073;-71
2023/08/14 03:04:08;;;;;;;0.00;0.00;;;13.20;99.90;;;;;;5099561;28;20063;-71
2023/08/14 03:06:33;;;;;;;0.30;0.10;;;13.20;99.90;;;;;;5097976;28;20046;-71
2023/08/14 03:08:59;;;;;;;0.10;0.10;;;13.20;99.90;;;;;;5094093;28;20035;-71
2023/08/14 03:11:25;;;;;;;0.73;0.13;;;13.30;99.90;;;;;;5101422;28;20717;-70
2023/08/14 03:13:51;;;;;;;0.00;0.00;;;13.20;99.90;;;;;;5096788;28;20038;-71
2023/08/14 03:16:16;;;;;;;0.00;0.00;;;13.20;99.90;;;;;;5096133;28;20746;-71
2023/08/14 03:18:42;;;;;;;0.10;0.10;;;13.20;99.90;;;;;;5101213;28;20043;-71
2023/08/14 03:21:08;;;;;;;0.00;0.00;;;13.20;99.90;;;;;;5097681;28;20027;-70
2023/08/14 03:23:34;;;;;;;0.10;0.10;;;13.30;99.90;;;;;;5097428;28;20054;-70
2023/08/14 03:26:01;;;;;;;1.00;0.20;;;13.20;99.90;;;;;;5120652;28;20062;-70
2023/08/14 03:28:26;;;;;;;0.00;0.00;;;13.20;99.90;;;;;;5093648;28;20039;-69
2023/08/14 03:30:52;;;;;;;0.10;0.10;;;13.20;99.90;;;;;;5129611;27;20547;-70
2023/08/14 03:33:18;;;;;;;0.00;0.00;;;13.20;99.90;;;;;;5098493;28;20114;-70
2023/08/14 03:35:43;;;;;;;0.00;0.00;;;13.20;99.90;;;;;;5103921;28;20094;-69
2023/08/14 03:38:09;;;;;;;0.10;0.10;;;13.20;99.90;;;;;;5097075;28;20503;-70
2023/08/14 03:40:35;;;;;;;0.08;0.08;;;13.20;99.90;;;;;;5118345;28;20047;-69
2023/08/14 03:43:00;;;;;;;0.10;0.10;;;13.20;99.90;;;;;;5105552;28;20362;-69
2023/08/14 03:45:26;;;;;;;0.08;0.08;;;13.10;99.90;;;;;;5102593;27;20035;-70
2023/08/14 03:47:51;;;;;;;0.10;0.10;;;13.10;99.90;;;;;;5107915;27;20456;-70
2023/08/14 03:50:17;;;;;;;0.00;0.00;;;13.00;99.90;;;;;;5097032;27;20036;-70
2023/08/14 03:52:42;;;;;;;0.20;0.15;;;13.00;99.90;;;;;;5100256;27;20486;-70
2023/08/14 03:55:08;;;;;;;0.10;0.10;;;13.00;99.90;;;;;;5104418;27;20034;-69
2023/08/14 03:57:34;;;;;;;0.00;0.00;;;13.00;99.90;;;;;;5103791;27;20096;-69
2023/08/14 04:00:00;;;;;;;0.00;0.00;;;13.10;99.90;;;;;;5108565;27;20043;-70
2023/08/14 04:02:26;;;;;;;0.38;0.38;;;13.10;99.90;;;;;;5102131;27;20053;-70
2023/08/14 04:04:51;;;;;;;0.00;0.00;;;13.10;99.90;;;;;;5100734;27;20537;-69
2023/08/14 04:07:17;;;;;;;0.10;0.10;;;13.10;99.90;;;;;;5102380;27;20035;-69
2023/08/14 04:09:43;;;;;;;0.20;0.20;;;13.20;99.90;;;;;;5105185;27;20076;-69
2023/08/14 04:12:09;;;;;;;0.00;0.00;;;13.20;99.90;;;;;;5106513;27;20027;-69
2023/08/14 04:14:35;;;;;;;0.00;0.00;;;13.20;99.90;;;;;;5100724;27;20039;-68
2023/08/14 04:17:01;;;;;;;0.10;0.10;;;13.20;99.90;;;;;;5100416;27;20028;-68
2023/08/14 04:19:26;;;;;;;0.10;0.10;;;13.20;99.90;;;;;;5104836;27;20134;-68
2023/08/14 04:21:52;;;;;;;0.10;0.10;;;13.30;99.90;;;;;;5121252;27;20077;-68
2023/08/14 04:24:18;;;;;;;0.10;0.10;;;13.30;99.90;;;;;;5104682;27;20035;-68
2023/08/14 04:26:43;;;;;;;0.15;0.15;;;13.30;99.90;;;;;;5106165;27;20043;-68
2023/08/14 04:29:10;;;;;;;0.00;0.00;;;13.40;99.90;;;;;;5106997;27;20151;-68
2023/08/14 04:31:37;;;;;;;0.10;0.10;;;13.30;99.90;;;;;;5101925;27;20071;-68
2023/08/14 04:34:04;;;;;;;0.20;0.20;;;13.30;99.90;;;;;;5101433;27;20126;-68
2023/08/14 04:36:34;;;;;;;1.13;0.40;;;13.30;99.90;;;;;;5104726;27;20434;-68
2023/08/14 04:39:00;;;;;;;0.17;0.17;;;13.40;99.90;;;;;;5101748;27;20067;-68
2023/08/14 04:41:27;;;;;;;0.10;0.10;;;13.40;99.90;;;;;;5104665;27;20130;-67
2023/08/14 04:43:53;;;;;;;0.13;0.10;;;13.40;99.90;;;;;;5125431;27;20031;-68
2023/08/14 04:46:33;;;;;;;0.32;0.32;;;13.40;99.90;;;;;;5126747;27;20043;-68
2023/08/14 04:48:59;;;;;;;0.25;0.25;;;13.40;99.90;;;;;;5095583;27;20159;-68
2023/08/14 04:51:26;;;;;;;0.10;0.10;;;13.40;99.90;;;;;;5097324;27;20045;-68
2023/08/14 04:53:53;;;;;;;0.10;0.10;;;13.40;99.90;;;;;;5103122;27;20376;-68
2023/08/14 04:56:18;;;;;;;0.10;0.10;;;13.40;99.90;;;;;;5104917;27;20035;-68
2023/08/14 04:58:44;;;;;;;0.65;0.47;;;13.50;99.90;;;;;;5097672;27;20047;-68
2023/08/14 05:01:10;;;;;;;0.10;0.10;;;13.50;99.90;;;;;;5104736;27;20051;-68
2023/08/14 05:03:35;;;;;;;0.10;0.10;;;13.60;99.90;;;;;;5098236;27;20035;-68
2023/08/14 05:06:01;;;;;;;0.10;0.10;;;13.70;99.90;;;;;;5116963;27;20130;-68
2023/08/14 05:08:27;;;;;;;0.00;0.00;;;13.80;99.90;;;;;;5103022;27;20379;-69
2023/08/14 05:10:54;;;;;;;0.10;0.10;;;13.80;99.90;;;;;;5138135;27;20398;-68
2023/08/14 05:13:20;;;;;;;0.43;0.20;;;13.90;99.90;;;;;;5102638;27;20031;-70
2023/08/14 05:15:50;;;;;;;0.47;0.30;;;14.00;99.90;;;;;;5106938;27;20134;-70
2023/08/14 05:18:17;;;;;;;0.10;0.10;;;14.10;99.90;;;;;;5100905;27;20499;-70
2023/08/14 05:20:43;;;;;;;0.50;0.13;;;14.20;99.90;;;;;;5137205;27;20046;-70
2023/08/14 05:23:10;;;;;;;0.63;0.20;;;14.30;99.90;;;;;;5100078;27;20035;-71
2023/08/14 05:25:36;;;;;;;0.00;0.00;;;14.40;99.90;;;;;;5086848;27;20044;-71
2023/08/14 05:28:01;;;;;;;1.23;0.30;;;14.50;99.90;;;;;;5132512;27;20084;-71
2023/08/14 05:30:27;;;;;;;0.47;0.47;;;14.60;99.90;;;;;;5113705;27;20043;-71
2023/08/14 05:32:53;;;;;;;0.25;0.25;;;14.70;99.90;;;;;;5108241;27;20047;-72
2023/08/14 05:35:23;;;;;;;0.25;0.25;;;14.80;99.90;;;;;;5112326;27;20447;-71
2023/08/14 05:37:55;;;;;;;0.00;0.00;;;14.90;99.90;;;;;;5114538;27;20070;-72
2023/08/14 05:40:21;;;;;;;0.15;0.15;;;15.00;99.90;;;;;;5102907;27;20035;-71
2023/08/14 05:43:06;;;;;;;0.10;0.10;;;15.00;99.90;;;;;;5109415;27;20039;-71
2023/08/14 05:45:37;;;;;;;0.10;0.10;;;15.10;99.90;;;;;;5110339;27;20390;-71
2023/08/14 05:48:04;;;;;;;0.10;0.10;;;15.20;99.90;;;;;;5117936;27;20456;-71
2023/08/14 05:50:31;;;;;;;0.10;0.10;;;15.20;99.90;;;;;;5112649;27;20057;-71
2023/08/14 05:52:59;;;;;;;0.40;0.32;;;15.20;99.90;;;;;;5135236;27;20466;-71
2023/08/14 05:55:25;;;;;;;0.38;0.38;;;15.30;99.90;;;;;;5103904;27;20051;-71
2023/08/14 05:57:51;;;;;;;0.03;0.03;;;15.30;99.90;;;;;;5093415;28;20045;-71
2023/08/14 06:00:18;;;;;;;0.25;0.25;;;15.40;99.90;;;;;;5100783;27;20043;-71
2023/08/14 06:02:44;;;;;;;0.55;0.55;;;15.40;99.90;;;;;;5112271;27;20043;-71
2023/08/14 06:05:10;;;;;;;0.20;0.20;;;15.50;99.90;;;;;;5106395;27;20035;-71
2023/08/14 06:07:36;;;;;;;0.10;0.10;;;15.60;99.90;;;;;;5097334;28;20547;-70
2023/08/14 06:10:03;;;;;;;0.55;0.55;;;15.70;99.90;;;;;;5099755;27;20039;-70
2023/08/14 06:12:29;;;;;;;0.00;0.00;;;15.80;99.90;;;;;;5098194;27;20043;-70
2023/08/14 06:14:55;;;;;;;0.00;0.00;;;15.90;99.90;;;;;;5105846;27;20041;-70
2023/08/14 06:17:20;;;;;;;0.00;0.00;;;15.90;99.90;;;;;;5094082;27;20043;-70
2023/08/14 06:19:46;;;;;;;0.20;0.20;;;16.00;99.90;;;;;;5098999;28;20136;-69
2023/08/14 06:22:11;;;;;;;0.10;0.10;;;16.00;99.90;;;;;;5096120;27;20072;-69
2023/08/14 06:24:37;;;;;;;0.28;0.20;;;16.10;99.90;;;;;;5104456;27;20134;-69
2023/08/14 06:27:03;;;;;;;0.20;0.20;;;16.10;99.90;;;;;;5100405;27;20039;-69
2023/08/14 06:29:28;;;;;;;0.20;0.20;;;16.20;99.90;;;;;;5095214;27;20043;-69
2023/08/14 06:31:54;;;;;;;0.52;0.52;;;16.20;99.90;;;;;;5100007;27;20035;-69
2023/08/14 06:34:19;;;;;;;0.10;0.10;;;16.20;99.90;;;;;;5099609;27;20513;-69
2023/08/14 06:36:45;;;;;;;0.70;0.30;;;16.30;99.90;;;;;;5104420;27;20035;-68
2023/08/14 06:39:10;;;;;;;0.10;0.10;;;16.30;99.90;;;;;;5102322;28;20136;-69
2023/08/14 06:41:36;;;;;;;0.60;0.60;;;16.30;99.90;;;;;;5105701;28;20489;-68
2023/08/14 06:44:02;;;;;;;0.88;0.40;;;16.40;99.90;;;;;;5123584;27;20031;-69
2023/08/14 06:46:27;;;;;;;0.17;0.17;;;16.40;99.90;;;;;;5110507;28;20031;-68
2023/08/14 06:48:53;;;;;;;0.20;0.15;;;16.40;99.90;;;;;;5108826;28;20129;-68
2023/08/14 06:51:18;;;;;;;0.43;0.20;;;16.40;99.90;;;;;;5111965;28;20046;-68
2023/08/14 06:53:44;;;;;;;0.20;0.20;;;16.50;99.90;;;;;;5105165;27;20035;-68
2023/08/14 06:56:10;;;;;;;0.10;0.10;;;16.60;99.90;;;;;;5108179;27;20639;-68
2023/08/14 06:58:36;;;;;;;0.13;0.13;;;16.60;99.90;;;;;;5098745;28;20497;-68
2023/08/14 07:01:01;;;;;;;0.82;0.40;;;16.70;99.90;;;;;;5106664;27;20035;-68
2023/08/14 07:03:27;;;;;;;0.82;0.43;;;16.80;99.90;;;;;;5110243;27;20042;-68
2023/08/14 07:05:52;;;;;;;0.30;0.30;;;16.90;99.90;;;;;;5110420;28;20046;-68
2023/08/14 07:08:18;;;;;;;0.77;0.63;;;17.00;99.90;;;;;;5104066;28;20035;-68
2023/08/14 07:10:43;;;;;;;0.10;0.10;;;17.10;99.90;;;;;;5137816;27;20046;-68
2023/08/14 07:13:10;;;;;;;1.23;0.95;;;17.20;99.90;;;;;;5104988;28;20459;-68
2023/08/14 07:15:35;;;;;;;0.50;0.35;;;17.30;99.90;;;;;;5107176;28;20064;-68
2023/08/14 07:18:02;;;;;;;0.15;0.15;;;17.40;99.90;;;;;;5116445;28;20035;-69
2023/08/14 07:20:28;;;;;;;0.90;0.40;;;17.50;99.90;;;;;;5098985;28;20050;-69
2023/08/14 07:22:56;;;;;;;0.20;0.20;;;17.70;99.90;;;;;;5100822;27;20039;-69
2023/08/14 07:25:22;;;;;;;0.10;0.10;;;17.90;99.90;;;;;;5139862;27;20024;-70
2023/08/14 07:27:48;;;;;;;0.13;0.13;;;18.10;99.90;;;;;;5100610;27;20043;-70
2023/08/14 07:30:14;;;;;;;0.55;0.30;;;18.20;99.90;;;;;;5108508;27;20058;-70
2023/08/14 07:32:40;;;;;;;1.73;0.95;;;18.30;99.90;;;;;;5098809;27;20418;-70
2023/08/14 07:35:06;;;;;;;0.10;0.10;;;18.40;99.90;;;;;;5110051;27;20059;-70
2023/08/14 07:37:31;;;;;;;0.47;0.30;;;18.50;99.90;;;;;;5105240;27;20130;-71
2023/08/14 07:39:57;;;;;;;0.25;0.25;;;18.50;99.90;;;;;;5113127;27;20122;-70
2023/08/14 07:42:23;;;;;;;0.20;0.20;;;18.60;99.90;;;;;;5128457;27;20046;-70
2023/08/14 07:44:48;;;;;;;0.32;0.32;;;18.60;99.90;;;;;;5094230;27;20120;-70
2023/08/14 07:47:14;;;;;;;2.75;0.70;;;18.70;99.90;;;;;;5101577;27;20082;-70
2023/08/14 07:49:39;;;;;;;0.38;0.20;;;18.70;99.90;;;;;;5101576;27;20043;-70
2023/08/14 07:52:06;;;;;;;0.30;0.10;;;18.80;99.90;;;;;;5078888;27;20108;-70
2023/08/14 07:54:32;;;;;;;0.20;0.10;;;18.80;99.90;;;;;;5094898;28;20034;-70
2023/08/14 07:56:57;;;;;;;0.45;0.20;;;18.90;99.90;;;;;;5096426;27;20118;-69
2023/08/14 07:59:23;;;;;;;0.13;0.13;;;19.00;99.90;;;;;;5112690;27;20122;-70
2023/08/14 08:01:49;;;;;;;0.75;0.75;;;19.10;99.90;;;;;;5112515;27;20118;-69
2023/08/14 08:04:15;;;;;;;1.08;0.68;;;19.10;99.90;;;;;;5110906;27;20555;-69
2023/08/14 08:06:40;;;;;;;0.10;0.10;;;19.10;99.90;;;;;;5105865;27;20281;-69
2023/08/14 08:09:07;;;;;;;0.20;0.20;;;19.30;99.90;;;;;;5110329;27;20039;-69
2023/08/14 08:11:33;;;;;;;0.93;0.28;;;19.30;99.90;;;;;;5104279;27;20071;-69
2023/08/14 08:14:05;;;;;;;0.60;0.40;;;19.40;99.90;;;;;;5100428;27;20075;-69
2023/08/14 08:16:34;;;;;;;0.10;0.10;;;19.40;99.90;;;;;;5125411;27;20084;-68
2023/08/14 08:19:04;;;;;;;0.30;0.30;;;19.50;99.90;;;;;;5106971;27;20027;-68
2023/08/14 08:21:30;;;;;;;1.08;0.68;;;19.60;99.90;;;;;;5121696;27;20075;-68
2023/08/14 08:23:56;;;;;;;0.52;0.52;;;19.70;99.90;;;;;;5097391;27;20035;-68
2023/08/14 08:26:22;;;;;;;0.65;0.40;;;19.90;99.90;;;;;;5093034;27;20042;-68
2023/08/14 08:28:48;;;;;;;0.55;0.17;;;20.10;99.90;;;;;;5102933;27;20042;-68
2023/08/14 08:31:14;;;;;;;0.13;0.13;;;20.40;99.90;;;;;;5100085;27;20040;-68
2023/08/14 08:33:40;;;;;;;0.40;0.40;;;20.50;99.90;;;;;;5098614;27;20044;-68
2023/08/14 08:36:05;;;;;;;0.30;0.30;;;20.50;99.90;;;;;;5111448;27;20045;-67
2023/08/14 08:38:31;;;;;;;0.98;0.98;;;20.60;99.90;;;;;;5110322;27;20047;-68
2023/08/14 08:41:02;;;;;;;0.10;0.10;;;20.60;99.90;;;;;;5110468;27;20557;-68
2023/08/14 08:43:30;;;;;;;0.17;0.17;;;20.70;99.90;;;;;;5113215;27;20133;-68
2023/08/14 08:45:59;;;;;;;0.75;0.75;;;20.70;99.90;;;;;;5116919;27;20048;-68
2023/08/14 08:48:32;;;;;;;0.30;0.30;;;20.70;99.90;;;;;;5116477;27;20486;-68
2023/08/14 08:50:58;;;;;;;0.38;0.38;;;20.60;99.90;;;;;;5111347;28;20040;-67
2023/08/14 08:53:24;;;;;;;0.30;0.30;;;20.50;99.90;;;;;;5099907;27;20039;-67
2023/08/14 08:55:50;;;;;;;0.15;0.15;;;20.50;99.90;;;;;;5143787;27;20096;-68
2023/08/14 08:58:17;;;;;;;0.63;0.43;;;20.60;99.90;;;;;;5106699;27;20123;-68
2023/08/14 09:00:43;;;;;;;0.47;0.25;;;20.60;99.90;;;;;;5109549;27;20035;-68
2023/08/14 09:03:10;;;;;;;0.10;0.10;;;20.60;99.90;;;;;;5107250;27;20043;-68
2023/08/14 09:05:36;;;;;;;0.40;0.40;;;20.60;99.90;;;;;;5099803;27;20261;-68
2023/08/14 09:08:03;;;;;;;4.93;0.40;;;20.60;99.90;;;;;;5111242;27;20039;-68
2023/08/14 09:10:29;;;;;;;0.10;0.10;;;20.60;99.90;;;;;;5101388;27;20047;-67
2023/08/14 09:12:55;;;;;;;0.20;0.20;;;20.70;99.90;;;;;;5117137;27;20039;-67
2023/08/14 09:15:23;;;;;;;2.28;0.52;;;20.90;99.90;;;;;;5111701;27;20035;-67
2023/08/14 09:17:51;;;;;;;0.65;0.65;;;21.00;99.90;;;;;;5092073;27;20426;-67
2023/08/14 09:20:18;;;;;;;1.05;0.40;;;21.10;99.90;;;;;;5100210;27;20046;-67
2023/08/14 09:22:44;;;;;;;0.38;0.38;;;21.30;99.90;;;;;;5107522;27;20517;-67
2023/08/14 09:25:10;;;;;;;0.10;0.10;;;21.30;99.90;;;;;;5104198;27;20035;-67
2023/08/14 09:27:37;;;;;;;0.45;0.30;;;21.40;99.90;;;;;;5109020;27;20047;-68
2023/08/14 09:30:05;;;;;;;0.20;0.20;;;21.50;99.90;;;;;;5110321;27;20126;-67
2023/08/14 09:32:32;;;;;;;0.28;0.28;;;21.60;99.90;;;;;;5105319;27;20043;-67
2023/08/14 09:35:02;;;;;;;0.20;0.20;;;21.70;99.90;;;;;;5126862;27;20390;-68
2023/08/14 09:37:28;;;;;;;0.08;0.08;;;21.80;99.90;;;;;;5110068;27;20434;-67
2023/08/14 09:40:17;;;;;;;0.52;0.50;;;21.90;99.90;;;;;;5103775;27;20377;-68
2023/08/14 09:42:55;;;;;;;0.55;0.28;;;22.00;99.90;;;;;;5108001;27;20039;-68
2023/08/14 09:45:23;;;;;;;0.20;0.20;;;22.00;99.90;;;;;;5104115;27;20108;-68
2023/08/14 09:47:50;;;;;;;0.10;0.10;;;22.00;99.90;;;;;;5106994;27;20114;-68
2023/08/14 09:50:16;;;;;;;0.52;0.47;;;22.00;99.90;;;;;;5110356;27;20612;-68
2023/08/14 09:52:42;;;;;;;1.10;0.45;;;22.10;99.90;;;;;;5102887;27;20043;-68
2023/08/14 09:55:09;;;;;;;0.30;0.25;;;22.20;99.90;;;;;;5101682;27;20035;-68
2023/08/14 09:57:35;;;;;;;0.20;0.20;;;22.30;99.90;;;;;;5102498;27;20066;-68
2023/08/14 10:00:01;;;;;;;1.35;0.75;;;22.50;99.90;;;;;;5110255;27;20081;-68
2023/08/14 10:02:27;;;;;;;0.57;0.45;;;22.60;99.90;;;;;;5106328;28;20075;-68
2023/08/14 10:04:54;;;;;;;1.08;0.30;;;22.80;99.90;;;;;;5103206;27;20121;-68
2023/08/14 10:07:23;;;;;;;0.47;0.30;;;22.90;99.90;;;;;;5112793;27;20090;-68
2023/08/14 10:09:55;;;;;;;0.10;0.10;;;22.80;99.90;;;;;;5108302;27;20043;-68
2023/08/14 10:12:28;;;;;;;0.20;0.20;;;22.70;99.90;;;;;;5113717;27;20472;-68
2023/08/14 10:15:10;;;;;;;0.45;0.45;;;22.70;99.90;;;;;;5127257;27;20095;-68
2023/08/14 10:17:55;;;;;;;0.20;0.20;;;22.70;99.90;;;;;;5104531;28;20050;-68
2023/08/14 10:20:22;;;;;;;0.70;0.65;;;22.60;99.90;;;;;;5110863;27;20129;-68
2023/08/14 10:22:49;;;;;;;0.10;0.10;;;22.60;99.90;;;;;;5114222;27;20477;-68
2023/08/14 10:25:16;;;;;;;0.20;0.20;;;22.50;99.90;;;;;;5097565;27;20053;-68
2023/08/14 10:27:43;;;;;;;0.82;0.82;;;22.60;99.90;;;;;;5093043;28;20049;-68
2023/08/14 10:30:10;;;;;;;0.10;0.10;;;22.70;99.90;;;;;;5094490;28;20043;-68
2023/08/14 10:32:37;;;;;;;0.10;0.10;;;22.80;99.90;;;;;;5096244;27;20421;-68
2023/08/14 10:35:03;;;;;;;0.68;0.68;;;22.90;99.90;;;;;;5113080;27;20040;-69
2023/08/14 10:37:44;;;;;;;0.50;0.50;;;23.00;99.90;;;;;;5099580;27;20035;-68
2023/08/14 10:40:15;;;;;;;0.10;0.10;;;23.10;99.90;;;;;;5091807;28;20054;-68
2023/08/14 10:42:43;;;;;;;0.40;0.40;;;23.20;99.90;;;;;;5103371;27;20142;-68
2023/08/14 10:45:09;;;;;;;0.20;0.20;;;23.30;99.90;;;;;;5092334;27;20432;-67
2023/08/14 10:47:37;;;;;;;1.33;0.30;;;23.40;99.90;;;;;;5101861;27;20068;-68
2023/08/14 10:50:13;;;;;;;0.68;0.45;;;23.50;99.90;;;;;;5116355;27;20092;-68
2023/08/14 10:52:39;;;;;;;0.38;0.38;;;23.60;99.90;;;;;;5098101;28;20043;-69
2023/08/14 10:55:17;;;;;;;0.10;0.10;;;23.70;99.90;;;;;;5128279;27;20035;-69
2023/08/14 10:57:45;;;;;;;0.10;0.10;;;23.80;99.90;;;;;;5100867;27;20049;-68
2023/08/14 11:00:24;;;;;;;0.45;0.45;;;23.90;99.90;;;;;;5098260;28;20126;-68
2023/08/14 11:02:51;;;;;;;0.20;0.20;;;23.90;99.90;;;;;;5100000;28;20040;-68
2023/08/14 11:05:17;;;;;;;0.10;0.10;;;23.90;99.90;;;;;;5101102;27;20173;-68
2023/08/14 11:08:00;;;;;;;0.10;0.10;;;23.90;99.90;;;;;;5101079;28;20040;-68
2023/08/14 11:10:26;;;;;;;0.45;0.45;;;24.00;99.90;;;;;;5109316;28;20443;-67
2023/08/14 11:12:55;;;;;;;0.10;0.10;;;24.00;99.90;;;;;;5101160;28;20043;-68
2023/08/14 11:15:21;;;;;;;0.10;0.10;;;23.90;99.90;;;;;;5147220;27;20035;-68
2023/08/14 11:17:47;;;;;;;0.10;0.10;;;23.80;99.90;;;;;;5102953;28;20039;-68
2023/08/14 11:20:13;;;;;;;0.10;0.10;;;23.70;99.90;;;;;;5105810;28;20054;-68
2023/08/14 11:22:46;;;;;;;0.43;0.43;;;23.60;99.90;;;;;;5099297;28;20043;-68
2023/08/14 11:25:15;;;;;;;1.50;0.95;;;23.60;99.90;;;;;;5093661;28;20042;-68
2023/08/14 11:27:41;;;;;;;0.20;0.20;;;23.50;99.90;;;;;;5099277;28;20043;-68
2023/08/14 11:30:07;;;;;;;0.17;0.17;;;23.60;99.90;;;;;;5109062;28;20043;-68
2023/08/14 11:32:33;;;;;;;0.20;0.20;;;23.70;99.90;;;;;;5119837;28;20062;-68
2023/08/14 11:34:59;;;;;;;0.20;0.20;;;23.80;99.90;;;;;;5103711;28;20039;-68
2023/08/14 11:37:25;;;;;;;0.15;0.15;;;23.80;99.90;;;;;;5102616;28;20695;-68
2023/08/14 11:39:50;;;;;;;0.20;0.20;;;23.80;99.90;;;;;;5109755;28;20068;-68
2023/08/14 11:42:16;;;;;;;0.00;0.00;;;23.90;99.90;;;;;;5127794;27;20079;-68
2023/08/14 11:44:41;;;;;;;0.30;0.30;;;23.90;99.90;;;;;;5109839;28;20039;-69
2023/08/14 11:47:07;;;;;;;0.17;0.10;;;23.80;99.90;;;;;;5080159;28;20044;-68
2023/08/14 11:49:39;;;;;;;0.15;0.15;;;23.80;99.90;;;;;;5132006;27;20071;-68
2023/08/14 11:52:05;;;;;;;0.10;0.10;;;23.90;99.90;;;;;;5091906;28;20051;-68
2023/08/14 11:54:33;;;;;;;0.10;0.10;;;24.00;99.90;;;;;;5106710;28;20035;-68
2023/08/14 11:57:07;;;;;;;0.90;0.90;;;24.10;99.90;;;;;;5117626;28;20446;-68
2023/08/14 11:59:33;;;;;;;0.20;0.20;;;24.10;99.90;;;;;;5136886;27;20051;-68
2023/08/14 12:02:00;;;;;;;0.43;0.40;;;24.20;99.90;;;;;;5100757;28;20567;-68
2023/08/14 12:04:26;;;;;;;0.70;0.70;;;24.00;99.90;;;;;;5100341;28;20222;-68
2023/08/14 12:06:54;;;;;;;0.10;0.10;;;24.00;99.90;;;;;;5113815;27;20130;-68
2023/08/14 12:09:19;;;;;;;0.10;0.10;;;23.90;99.90;;;;;;5103575;28;20051;-68
2023/08/14 12:11:45;;;;;;;0.28;0.28;;;23.80;99.90;;;;;;5096749;27;20082;-68
2023/08/14 12:14:11;;;;;;;1.05;0.38;;;23.80;99.90;;;;;;5103137;27;20035;-68
2023/08/14 12:16:40;;;;;;;1.23;0.63;;;23.80;99.90;;;;;;5089634;27;20091;-68
2023/08/14 12:19:09;;;;;;;0.40;0.17;;;23.80;99.90;;;;;;5128049;27;20047;-68
2023/08/14 12:21:34;;;;;;;0.57;0.45;;;24.00;99.90;;;;;;5108189;27;20402;-68
2023/08/14 12:24:01;;;;;;;0.50;0.40;;;24.00;99.90;;;;;;5101702;27;20070;-68
2023/08/14 12:26:27;;;;;;;0.13;0.13;;;24.00;99.90;;;;;;5107739;27;20046;-68
2023/08/14 12:28:52;;;;;;;0.08;0.08;;;24.00;99.90;;;;;;5129062;27;20035;-68
2023/08/14 12:31:18;;;;;;;0.25;0.25;;;23.90;99.90;;;;;;5114426;27;20122;-68
2023/08/14 12:33:43;;;;;;;0.20;0.10;;;23.90;99.90;;;;;;5114303;27;20068;-68
2023/08/14 12:36:12;;;;;;;0.88;0.85;;;24.00;99.90;;;;;;5115054;27;20039;-68
2023/08/14 12:38:38;;;;;;;0.20;0.20;;;24.10;99.90;;;;;;5098380;27;20035;-68
2023/08/14 12:41:04;;;;;;;0.17;0.17;;;24.20;99.90;;;;;;5108404;27;20111;-68
2023/08/14 12:43:31;;;;;;;0.32;0.32;;;24.20;99.90;;;;;;5107978;27;20521;-68
2023/08/14 12:45:57;;;;;;;0.20;0.20;;;24.10;99.90;;;;;;5121570;27;20474;-68
2023/08/14 12:48:22;;;;;;;0.10;0.10;;;24.10;99.90;;;;;;5102074;27;20513;-68